Time;durP1;ratioP1;P1;durP2;ratioP2;P2;SDS_P1;SDS_P2;PMS_P1;PMS_P2;Temp;Humidity;BMP_temperature;BMP_pressure;BME280_temperature;BME280_humidity;BME280_pressure;Samples;Min_cycle;Max_cycle;Signal;HPM_P1;HPM_P2
2022/06/30 00:01:05;;;;;;;;;;;20.80;1.00;;;;;;10245521;28;84760;-46
2022/06/30 00:06:05;;;;;;;;;;;20.90;1.00;;;;;;10245362;28;84737;-48
2022/06/30 00:11:09;;;;;;;;;;;20.70;1.00;;;;;;10209513;28;84753;-46
2022/06/30 00:16:09;;;;;;;;;;;20.70;1.00;;;;;;10219947;28;85078;-46
2022/06/30 00:21:11;;;;;;;;;;;20.50;1.00;;;;;;10204432;28;84964;-48
2022/06/30 00:26:11;;;;;;;;;;;20.40;1.00;;;;;;10231024;28;84221;-47
2022/06/30 00:31:12;;;;;;;;;;;20.40;1.00;;;;;;10243480;28;84111;-45
2022/06/30 00:36:13;;;;;;;;;;;20.30;1.00;;;;;;10245046;28;84975;-48
2022/06/30 00:41:13;;;;;;;;;;;20.30;1.00;;;;;;10242650;28;84859;-47
2022/06/30 00:46:15;;;;;;;;;;;20.20;1.00;;;;;;10236133;28;85424;-47
2022/06/30 00:51:15;;;;;;;;;;;20.10;1.00;;;;;;10248195;28;84239;-48
2022/06/30 00:56:16;;;;;;;;;;;20.10;1.00;;;;;;10243893;28;84941;-45
2022/06/30 01:01:17;;;;;;;;;;;20.00;1.00;;;;;;10243138;28;84265;-51
2022/06/30 01:06:18;;;;;;;;;;;20.00;1.00;;;;;;10251924;28;84135;-48
2022/06/30 01:16:39;;;;;;;;;;;19.90;1.00;;;;;;10228810;28;85037;-48
2022/06/30 01:21:40;;;;;;;;;;;19.80;1.00;;;;;;10242965;28;84727;-47
2022/06/30 01:26:41;;;;;;;;;;;19.70;1.00;;;;;;10243174;28;84935;-48
2022/06/30 01:31:41;;;;;;;;;;;19.70;1.00;;;;;;10230278;28;84533;-47
2022/06/30 01:36:42;;;;;;;;;;;19.70;1.00;;;;;;10244924;28;84227;-47
2022/06/30 01:41:42;;;;;;;;;;;19.60;1.00;;;;;;10248198;28;84921;-48
2022/06/30 01:46:46;;;;;;;;;;;19.60;1.00;;;;;;10248369;28;84452;-51
2022/06/30 01:51:47;;;;;;;;;;;19.60;1.00;;;;;;10249484;28;84911;-47
2022/06/30 01:56:47;;;;;;;;;;;19.50;1.00;;;;;;10250768;28;84825;-46
2022/06/30 02:01:48;;;;;;;;;;;19.50;1.00;;;;;;10249917;28;84123;-48
2022/06/30 02:06:49;;;;;;;;;;;19.40;1.00;;;;;;10248521;28;85417;-45
2022/06/30 02:12:44;;;;;;;;;;;19.40;12.20;;;;;;10248465;28;85306;-45
2022/06/30 02:17:10;;;;;;;;;;;19.30;25.80;;;;;;10245970;28;84940;-46
2022/06/30 02:22:10;;;;;;;;;;;19.30;41.40;;;;;;10260934;22;86658;-46
2022/06/30 02:27:11;;;;;;;;;;;19.30;71.00;;;;;;10247813;28;84198;-47
2022/06/30 02:32:11;;;;;;;;;;;19.20;99.90;;;;;;10228120;28;84901;-45
2022/06/30 02:37:12;;;;;;;;;;;19.20;99.90;;;;;;10208685;28;84031;-46
2022/06/30 02:42:13;;;;;;;;;;;19.20;99.90;;;;;;10207932;28;86687;-46
2022/06/30 02:47:13;;;;;;;;;;;19.10;99.90;;;;;;10206972;28;85541;-46
2022/06/30 02:52:14;;;;;;;;;;;19.10;99.90;;;;;;10206270;28;84234;-49
2022/06/30 02:57:14;;;;;;;;;;;19.10;99.90;;;;;;10217816;28;84209;-48
2022/06/30 03:02:15;;;;;;;;;;;19.00;99.90;;;;;;10212701;28;84952;-48
2022/06/30 03:07:15;;;;;;;;;;;19.00;99.90;;;;;;10207233;28;85905;-47
2022/06/30 03:12:16;;;;;;;;;;;19.00;99.90;;;;;;10206596;28;85550;-47
2022/06/30 03:17:16;;;;;;;;;;;19.00;99.90;;;;;;10208281;28;84277;-48
2022/06/30 03:22:17;;;;;;;;;;;18.90;99.90;;;;;;10219736;28;84113;-49
2022/06/30 03:27:18;;;;;;;;;;;19.00;99.90;;;;;;10207627;28;84577;-47
2022/06/30 03:32:18;;;;;;;;;;;19.00;99.90;;;;;;10207743;28;84802;-47
2022/06/30 03:37:19;;;;;;;;;;;18.90;99.90;;;;;;10207965;28;85855;-46
2022/06/30 03:42:19;;;;;;;;;;;19.00;99.90;;;;;;10207151;28;85014;-48
2022/06/30 03:47:20;;;;;;;;;;;18.90;99.90;;;;;;10205705;28;84071;-48
2022/06/30 03:52:20;;;;;;;;;;;18.90;99.90;;;;;;10206361;28;84429;-46
2022/06/30 03:57:21;;;;;;;;;;;18.80;99.90;;;;;;10206134;28;85000;-51
2022/06/30 04:02:22;;;;;;;;;;;18.90;99.90;;;;;;10206059;28;84779;-49
2022/06/30 04:07:22;;;;;;;;;;;19.00;99.90;;;;;;10202673;28;84305;-47
2022/06/30 04:12:23;;;;;;;;;;;19.00;99.90;;;;;;10201774;28;85091;-51
2022/06/30 04:17:23;;;;;;;;;;;19.00;99.90;;;;;;10206345;28;84237;-46
2022/06/30 04:22:24;;;;;;;;;;;19.10;99.90;;;;;;10202189;28;84258;-47
2022/06/30 04:27:24;;;;;;;;;;;19.10;99.90;;;;;;10191552;28;85418;-50
2022/06/30 04:32:41;;;;;;;;;;;19.20;99.90;;;;;;10215709;28;84300;-50
2022/06/30 04:37:41;;;;;;;;;;;19.20;99.90;;;;;;10229392;28;84776;-52
2022/06/30 04:42:42;;;;;;;;;;;19.20;99.90;;;;;;10205002;28;84139;-45
2022/06/30 04:47:43;;;;;;;;;;;19.30;99.90;;;;;;10203110;28;86283;-51
2022/06/30 04:52:44;;;;;;;;;;;19.40;99.90;;;;;;10202456;28;84821;-53
2022/06/30 04:57:44;;;;;;;;;;;19.50;99.90;;;;;;10211887;28;84955;-50
2022/06/30 05:02:45;;;;;;;;;;;19.50;99.90;;;;;;10216944;28;85391;-46
2022/06/30 05:07:46;;;;;;;;;;;19.60;99.90;;;;;;10202761;28;84173;-47
2022/06/30 05:12:46;;;;;;;;;;;19.70;97.30;;;;;;10200848;28;84185;-45
2022/06/30 05:17:47;;;;;;;;;;;19.80;81.70;;;;;;10209822;28;85618;-47
2022/06/30 05:22:47;;;;;;;;;;;19.90;63.60;;;;;;10207510;28;84276;-53
2022/06/30 05:27:48;;;;;;;;;;;20.00;42.10;;;;;;10208204;28;84808;-47
2022/06/30 05:32:48;;;;;;;;;;;20.00;31.90;;;;;;10210130;28;84324;-48
2022/06/30 05:37:49;;;;;;;;;;;20.10;40.80;;;;;;10213216;28;84110;-46
2022/06/30 05:42:50;;;;;;;;;;;20.30;26.00;;;;;;10209441;28;84265;-49
2022/06/30 05:47:51;;;;;;;;;;;20.50;1.00;;;;;;10213132;28;84723;-51
2022/06/30 05:52:52;;;;;;;;;;;20.60;1.00;;;;;;10208909;28;84421;-47
2022/06/30 05:57:52;;;;;;;;;;;20.80;1.00;;;;;;10210582;28;84173;-45
2022/06/30 06:02:53;;;;;;;;;;;21.00;1.00;;;;;;10209653;28;85225;-44
2022/06/30 06:07:54;;;;;;;;;;;21.30;1.00;;;;;;10209470;28;84051;-51
2022/06/30 06:12:54;;;;;;;;;;;21.60;1.00;;;;;;10209531;28;84014;-47
2022/06/30 06:17:55;;;;;;;;;;;21.80;1.00;;;;;;10209279;28;84284;-47
2022/06/30 06:22:55;;;;;;;;;;;22.00;1.00;;;;;;10207924;28;84955;-48
2022/06/30 06:33:15;;;;;;;;;;;22.40;1.00;;;;;;10207996;28;84149;-50
2022/06/30 06:38:15;;;;;;;;;;;22.50;1.00;;;;;;10206125;28;85995;-48
2022/06/30 06:43:16;;;;;;;;;;;22.80;1.00;;;;;;10207436;28;84212;-50
2022/06/30 06:48:16;;;;;;;;;;;23.00;1.00;;;;;;10207854;28;85274;-44
2022/06/30 06:53:18;;;;;;;;;;;23.20;1.00;;;;;;10206993;28;84193;-49
2022/06/30 06:58:18;;;;;;;;;;;23.50;1.00;;;;;;10207236;28;85006;-53
2022/06/30 07:03:19;;;;;;;;;;;23.60;1.00;;;;;;10205862;28;85107;-48
2022/06/30 07:08:19;;;;;;;;;;;23.90;1.00;;;;;;10205420;28;84883;-49
2022/06/30 07:13:20;;;;;;;;;;;24.20;1.00;;;;;;10206929;28;84899;-47
2022/06/30 07:18:20;;;;;;;;;;;24.40;99.90;;;;;;10206379;28;84894;-48
2022/06/30 07:23:21;;;;;;;;;;;24.80;99.90;;;;;;10206119;28;84468;-47
2022/06/30 07:28:22;;;;;;;;;;;25.10;99.90;;;;;;10206376;28;84729;-50
2022/06/30 07:33:22;;;;;;;;;;;25.40;1.00;;;;;;10206201;28;84139;-48
2022/06/30 07:38:23;;;;;;;;;;;25.90;1.00;;;;;;10205479;28;86581;-49
2022/06/30 07:43:23;;;;;;;;;;;26.40;1.00;;;;;;10205718;28;85034;-47
2022/06/30 07:48:24;;;;;;;;;;;27.40;1.00;;;;;;10205258;28;84055;-48
2022/06/30 07:53:24;;;;;;;;;;;27.80;99.90;;;;;;10205784;28;84734;-48
2022/06/30 07:58:25;;;;;;;;;;;28.80;99.90;;;;;;10206565;28;83942;-48
2022/06/30 08:03:25;;;;;;;;;;;29.20;99.90;;;;;;10204779;28;84376;-47
2022/06/30 08:08:26;;;;;;;;;;;29.80;1.00;;;;;;10206767;28;84111;-51
2022/06/30 08:13:26;;;;;;;;;;;30.00;99.90;;;;;;10206619;28;84149;-50
2022/06/30 08:18:27;;;;;;;;;;;30.60;99.90;;;;;;10206141;28;84092;-49
2022/06/30 08:23:27;;;;;;;;;;;31.00;1.00;;;;;;10247085;22;84266;-52
2022/06/30 08:28:28;;;;;;;;;;;31.10;1.00;;;;;;10248313;28;84969;-47
2022/06/30 08:33:29;;;;;;;;;;;31.90;1.00;;;;;;10245458;28;84228;-47
2022/06/30 08:38:30;;;;;;;;;;;32.10;1.00;;;;;;10246939;28;84334;-52
2022/06/30 08:43:30;;;;;;;;;;;32.50;99.90;;;;;;10246446;28;84861;-47
2022/06/30 08:48:32;;;;;;;6.53;5.77;;;33.40;99.90;;;;;;10247364;28;84161;-48
2022/06/30 08:53:37;;;;;;;;;;;34.30;1.00;;;;;;10268263;28;85001;-50
2022/06/30 08:58:41;;;;;;;8.55;6.10;;;34.40;99.90;;;;;;10253350;28;84526;-50
2022/06/30 09:03:42;;;;;;;5.90;5.35;;;34.50;99.90;;;;;;10252496;28;84918;-48
2022/06/30 09:08:43;;;;;;;5.88;5.38;;;35.40;29.40;;;;;;10252914;28;84277;-48
2022/06/30 09:13:50;;;;;;;6.70;5.65;;;35.70;1.00;;;;;;10251750;28;85011;-49
2022/06/30 09:18:58;;;;;;;5.43;4.93;;;35.90;1.00;;;;;;10253937;28;85098;-49
2022/06/30 09:23:58;;;;;;;6.78;4.93;;;36.50;1.00;;;;;;10250727;28;84086;-51
2022/06/30 09:28:59;;;;;;;5.40;4.90;;;36.60;1.00;;;;;;10250803;28;84932;-62
2022/06/30 09:34:19;;;;;;;5.07;4.47;;;37.00;1.00;;;;;;10250345;28;84191;-51
2022/06/30 09:39:21;;;;;;;5.65;5.05;;;37.50;1.00;;;;;;10250091;28;85061;-48
2022/06/30 09:44:23;;;;;;;5.47;4.60;;;37.60;1.00;;;;;;10250015;28;84728;-50
2022/06/30 09:49:41;;;;;;;4.10;3.80;;;37.80;1.00;;;;;;10250029;28;85117;-51
2022/06/30 09:54:53;;;;;;;3.72;3.42;;;38.60;1.00;;;;;;10249911;28;84061;-49
2022/06/30 10:00:08;;;;;;;4.10;3.80;;;38.80;1.00;;;;;;10248751;28;84003;-51
2022/06/30 10:05:10;;;;;;;4.70;4.30;;;37.40;1.00;;;;;;10250152;28;84947;-52
2022/06/30 10:10:13;;;;;;;3.88;3.58;;;38.20;1.00;;;;;;10249345;28;84970;-49
2022/06/30 10:15:15;;;;;;;4.18;3.85;;;37.90;1.00;;;;;;10249400;28;83923;-48
2022/06/30 10:20:16;;;;;;;4.68;4.28;;;36.80;1.00;;;;;;10248604;28;84130;-49
2022/06/30 10:25:17;;;;;;;4.65;4.25;;;35.70;1.00;;;;;;10248894;28;85199;-48
2022/06/30 10:30:24;;;;;;;4.07;3.75;;;35.80;1.00;;;;;;10248152;28;84143;-47
2022/06/30 10:35:31;;;;;;;4.00;3.70;;;34.80;1.00;;;;;;10249123;28;84922;-47
2022/06/30 10:40:52;;;;;;;3.60;3.30;;;35.10;1.00;;;;;;10249989;28;84402;-47
2022/06/30 10:45:55;;;;;;;4.07;3.35;;;35.90;1.00;;;;;;10254570;28;84104;-50
2022/06/30 10:50:56;;;;;;;3.67;3.38;;;36.60;1.00;;;;;;10249318;28;85168;-47
2022/06/30 10:55:57;;;;;;;4.05;3.55;;;35.20;1.00;;;;;;10249146;28;84970;-46
2022/06/30 11:01:03;;;;;;;4.43;3.67;;;35.80;1.00;;;;;;10248876;28;84074;-47
2022/06/30 11:06:10;;;;;;;3.90;3.60;;;36.50;1.00;;;;;;10250662;28;84264;-51
2022/06/30 11:11:22;;;;;;;3.60;3.30;;;37.20;1.00;;;;;;10251477;28;84620;-50
2022/06/30 11:16:24;;;;;;;3.30;3.00;;;37.40;1.00;;;;;;10250625;28;84019;-47
2022/06/30 11:21:25;;;;;;;3.03;2.83;;;37.60;1.00;;;;;;10247943;28;84362;-48
2022/06/30 11:31:46;;;;;;;3.55;3.25;;;35.80;1.00;;;;;;10248543;28;84090;-47
2022/06/30 11:36:47;;;;;;;3.28;2.97;;;34.80;1.00;;;;;;10248404;28;84166;-52
2022/06/30 11:41:56;;;;;;;3.80;3.50;;;36.40;1.00;;;;;;10248157;28;84875;-47
2022/06/30 11:47:01;;;;;;;3.30;3.00;;;37.10;1.00;;;;;;10247113;28;84025;-49
2022/06/30 11:52:13;;;;;;;3.83;3.50;;;37.90;1.00;;;;;;10248619;28;84139;-52
2022/06/30 11:57:15;;;;;;;4.28;3.38;;;38.20;1.00;;;;;;10249574;28;84586;-52
2022/06/30 12:02:16;;;;;;;3.58;3.33;;;38.90;99.90;;;;;;10248439;28;84232;-52
2022/06/30 12:07:18;;;;;;;3.63;3.33;;;39.90;99.90;;;;;;10251022;28;84067;-48
2022/06/30 12:12:26;;;;;;;3.67;3.38;;;40.50;99.90;;;;;;10246847;28;85149;-50
2022/06/30 12:17:33;;;;;;;3.80;3.50;;;40.30;99.90;;;;;;10251023;28;84082;-52
2022/06/30 12:22:38;;;;;;;3.67;3.38;;;39.20;99.90;;;;;;10247803;28;84335;-49
2022/06/30 12:27:42;;;;;;;5.13;3.10;;;39.30;99.90;;;;;;10247896;28;85245;-47
2022/06/30 12:33:08;;;;;;;3.38;3.08;;;39.20;99.90;;;;;;10248847;28;85242;-47
2022/06/30 12:38:19;;;;;;;3.50;3.20;;;37.70;99.90;;;;;;10246881;28;84120;-47
2022/06/30 12:43:20;;;;;;;3.00;2.72;;;38.60;99.90;;;;;;10244300;28;85914;-48
2022/06/30 12:48:42;;;;;;;3.28;3.00;;;40.00;99.90;;;;;;10247440;28;84874;-51
2022/06/30 12:53:45;;;;;;;3.30;3.10;;;40.40;99.90;;;;;;10248175;28;86098;-49
2022/06/30 12:59:01;;;;;;;3.10;2.90;;;40.30;99.90;;;;;;10249308;28;84017;-50
2022/06/30 13:04:02;;;;;;;3.55;3.25;;;40.90;99.90;;;;;;10244993;28;84180;-50
2022/06/30 13:09:05;;;;;;;3.45;3.03;;;40.50;99.90;;;;;;10239264;28;84172;-48
2022/06/30 13:14:07;;;;;;;2.95;2.75;;;40.30;99.90;;;;;;10230067;28;84669;-56
2022/06/30 13:19:07;;;;;;;2.70;2.50;;;39.90;99.90;;;;;;10217919;28;84602;-53
2022/06/30 13:24:09;;;;;;;2.65;2.45;;;40.00;99.90;;;;;;10205031;28;84856;-55
2022/06/30 13:29:10;;;;;;;2.90;2.70;;;39.70;99.90;;;;;;10206386;28;84492;-50
2022/06/30 13:34:11;;;;;;;3.10;2.88;;;40.10;99.90;;;;;;10240530;28;85060;-47
2022/06/30 13:39:12;;;;;;;3.17;2.95;;;39.80;99.90;;;;;;10243839;28;84245;-48
2022/06/30 13:44:15;;;;;;;2.92;2.50;;;39.40;99.90;;;;;;10248918;28;84486;-48
2022/06/30 13:49:15;;;;;;;3.17;2.88;;;39.00;99.90;;;;;;10247780;28;84806;-47
2022/06/30 13:54:16;;;;;;;3.63;3.13;;;39.20;99.90;;;;;;10248079;28;84234;-49
2022/06/30 13:59:16;;;;;;;3.92;2.97;;;38.80;99.90;;;;;;10246773;28;85370;-46
2022/06/30 14:04:17;;;;;;;2.97;2.67;;;38.50;99.90;;;;;;10245855;28;84972;-47
2022/06/30 14:09:18;;;;;;;3.38;2.83;;;37.50;99.90;;;;;;10248686;28;84265;-45
2022/06/30 14:14:19;;;;;;;4.68;2.80;;;36.40;99.90;;;;;;10246458;28;84978;-46
2022/06/30 14:19:20;;;;;;;3.85;3.22;;;35.40;99.90;;;;;;10248171;28;84316;-46
2022/06/30 14:24:20;;;;;;;3.75;2.85;;;34.50;99.90;;;;;;10254607;22;86567;-46
2022/06/30 14:29:21;;;;;;;3.95;3.03;;;34.20;99.90;;;;;;10228815;28;85008;-48
2022/06/30 14:34:22;;;;;;;3.25;2.90;;;34.00;99.90;;;;;;10256422;28;84426;-51
2022/06/30 14:39:23;;;;;;;3.40;3.10;;;33.80;99.90;;;;;;10271854;28;84910;-49
2022/06/30 14:44:24;;;;;;;3.40;3.10;;;33.60;99.90;;;;;;10269484;28;84875;-48
2022/06/30 14:49:24;;;;;;;3.33;2.88;;;33.50;99.90;;;;;;10265631;28;86160;-57
2022/06/30 14:54:25;;;;;;;2.88;2.67;;;33.30;99.90;;;;;;10280022;28;84224;-54
2022/06/30 14:59:29;;;;;;;3.05;2.78;;;32.70;99.90;;;;;;10278083;28;85239;-49
2022/06/30 15:04:30;;;;;;;3.17;2.88;;;32.80;99.90;;;;;;10271306;28;84738;-50
2022/06/30 15:09:30;;;;;;;3.67;3.08;;;32.80;99.90;;;;;;10270956;28;86065;-48
2022/06/30 15:14:31;;;;;;;3.58;3.28;;;32.80;99.90;;;;;;10269298;28;85367;-47
2022/06/30 15:19:32;;;;;;;3.40;3.10;;;32.90;99.90;;;;;;10271260;28;84692;-45
2022/06/30 15:24:33;;;;;;;3.83;3.10;;;32.90;99.90;;;;;;10287102;28;84184;-52
2022/06/30 15:29:34;;;;;;;3.58;2.90;;;32.50;99.90;;;;;;10286651;28;83989;-50
2022/06/30 15:34:35;;;;;;;2.92;2.72;;;32.30;99.90;;;;;;10274256;28;84683;-50
2022/06/30 15:39:35;;;;;;;4.55;3.22;;;32.30;99.90;;;;;;10276107;28;84926;-49
2022/06/30 15:44:44;;;;;;;3.85;3.03;;;32.10;99.90;;;;;;10268812;28;85074;-51
2022/06/30 15:49:45;;;;;;;3.30;3.00;;;32.00;99.90;;;;;;10271464;28;84630;-48
2022/06/30 15:54:46;;;;;;;3.78;3.13;;;31.90;99.90;;;;;;10263120;28;85123;-49
2022/06/30 15:59:47;;;;;;;3.15;2.92;;;31.70;99.90;;;;;;10262134;28;85115;-50
2022/06/30 16:04:47;;;;;;;3.55;2.97;;;31.80;99.90;;;;;;10255097;28;84830;-48
2022/06/30 16:09:48;;;;;;;3.40;3.10;;;31.70;99.90;;;;;;10249518;28;85355;-48
2022/06/30 16:14:49;;;;;;;3.10;2.90;;;31.50;99.90;;;;;;10260146;28;84941;-53
2022/06/30 16:19:50;;;;;;;3.80;3.20;;;31.40;99.90;;;;;;10268534;28;84888;-49
2022/06/30 16:24:50;;;;;;;3.40;3.10;;;31.30;99.90;;;;;;10283450;28;84911;-51
2022/06/30 16:29:51;;;;;;;3.85;3.45;;;31.20;99.90;;;;;;10266030;28;84721;-49
2022/06/30 16:34:51;;;;;;;3.65;3.10;;;31.10;1.00;;;;;;10265593;28;84285;-47
2022/06/30 16:39:52;;;;;;;4.22;3.25;;;31.10;1.00;;;;;;10265246;28;84196;-52
2022/06/30 16:44:53;;;;;;;3.58;3.28;;;31.10;1.00;;;;;;10264188;28;84924;-48
2022/06/30 16:49:53;;;;;;;4.30;3.90;;;31.10;1.00;;;;;;10262477;28;86057;-50
2022/06/30 16:54:54;;;;;;;4.25;3.65;;;30.70;1.00;;;;;;10264352;28;84061;-48
2022/06/30 16:59:55;;;;;;;5.70;4.10;;;30.60;1.00;;;;;;10265310;28;84303;-48
2022/06/30 17:04:55;;;;;;;;;;;30.30;1.00;;;;;;10263616;28;86493;-53
2022/06/30 17:10:00;;;;;;;5.50;3.95;;;29.90;1.00;;;;;;10265497;28;84127;-51
2022/06/30 17:15:00;;;;;;;5.95;4.15;;;29.70;1.00;;;;;;10271143;28;84707;-50
2022/06/30 17:20:02;;;;;;;6.75;4.35;;;29.40;1.00;;;;;;10270838;28;84900;-50
2022/06/30 17:25:02;;;;;;;5.70;3.70;;;29.30;1.00;;;;;;10270377;28;85127;-53
2022/06/30 17:30:03;;;;;;;;;;;29.30;41.50;;;;;;10272181;28;84694;-52
2022/06/30 17:35:06;;;;;;;;;;;29.20;99.90;;;;;;10271014;28;84279;-52
2022/06/30 17:40:07;;;;;;;;;;;29.10;99.90;;;;;;10271498;28;84864;-50
2022/06/30 17:45:08;;;;;;;;;;;29.00;99.90;;;;;;10257966;28;84887;-51
2022/06/30 17:50:08;;;;;;;;;;;29.00;99.90;;;;;;10270070;28;84154;-51
2022/06/30 17:55:10;;;;;;;;;;;28.80;99.90;;;;;;10269006;28;84947;-52
2022/06/30 18:00:10;;;;;;;;;;;28.60;1.00;;;;;;10272141;28;84127;-53
2022/06/30 18:05:11;;;;;;;4.30;3.90;;;28.50;1.00;;;;;;10287710;28;85503;-48
2022/06/30 18:15:31;;;;;;;;;;;28.30;1.00;;;;;;10269349;28;84826;-51
2022/06/30 18:20:31;;;;;;;;;;;28.20;1.00;;;;;;10268149;28;84892;-55
2022/06/30 18:25:32;;;;;;;;;;;28.10;1.00;;;;;;10268972;28;84305;-48
2022/06/30 18:30:33;;;;;;;;;;;27.70;1.00;;;;;;10267755;28;84798;-47
2022/06/30 18:35:33;;;;;;;;;;;26.20;1.00;;;;;;10264347;28;85312;-46
2022/06/30 18:40:34;;;;;;;;;;;24.60;1.00;;;;;;10272902;28;85348;-48
2022/06/30 18:45:34;;;;;;;;;;;23.60;1.00;;;;;;10287846;28;84358;-49
2022/06/30 18:50:35;;;;;;;;;;;22.60;1.00;;;;;;10262353;28;84289;-53
2022/06/30 18:55:36;;;;;;;;;;;21.30;99.90;;;;;;10252808;28;85824;-54
2022/06/30 19:00:36;;;;;;;;;;;20.00;99.90;;;;;;10275357;28;84886;-50
2022/06/30 19:05:37;;;;;;;;;;;19.30;99.90;;;;;;10266400;28;84307;-50
2022/06/30 19:10:38;;;;;;;;;;;19.30;99.90;;;;;;10272662;28;84281;-49
2022/06/30 19:15:38;;;;;;;;;;;19.40;99.90;;;;;;10264883;28;85531;-54
2022/06/30 19:20:39;;;;;;;;;;;19.40;99.90;;;;;;10273000;28;84925;-52
2022/06/30 19:25:39;;;;;;;;;;;19.50;99.90;;;;;;10270300;28;86353;-52
2022/06/30 19:30:40;;;;;;;;;;;19.60;99.90;;;;;;10272400;28;85125;-50
2022/06/30 19:35:42;;;;;;;;;;;19.60;99.90;;;;;;10265631;28;85293;-56
2022/06/30 19:40:42;;;;;;;;;;;19.60;99.90;;;;;;10273243;28;84753;-51
2022/06/30 19:45:43;;;;;;;;;;;19.60;99.90;;;;;;10268345;28;84439;-49
2022/06/30 19:50:44;;;;;;;;;;;19.60;99.90;;;;;;10266356;28;86000;-50
2022/06/30 19:55:45;;;;;;;;;;;19.60;99.90;;;;;;10261239;28;85059;-54
2022/06/30 20:00:46;;;;;;;;;;;19.60;99.90;;;;;;10259987;28;84335;-49
2022/06/30 20:05:46;;;;;;;;;;;19.60;99.90;;;;;;10267784;28;85574;-47
2022/06/30 20:16:08;;;;;;;;;;;19.00;99.90;;;;;;10272547;28;87462;-51
2022/06/30 20:26:25;;;;;;;;;;;18.60;99.90;;;;;;10167305;28;84567;-48
2022/06/30 20:31:25;;;;;;;;;;;18.50;99.90;;;;;;10165068;28;84650;-47
2022/06/30 20:36:26;;;;;;;;;;;18.30;99.90;;;;;;10165497;28;85736;-47
2022/06/30 20:41:29;;;;;;;;;;;18.20;99.90;;;;;;10167541;28;84113;-46
2022/06/30 20:46:35;;;;;;;;;;;17.70;99.90;;;;;;10161900;28;84237;-48
2022/06/30 20:51:40;;;;;;;;;;;17.60;99.90;;;;;;10158612;28;85315;-46
2022/06/30 20:56:41;;;;;;;;;;;17.40;99.90;;;;;;10166661;28;84959;-45
2022/06/30 21:01:42;;;;;;;;;;;17.40;99.90;;;;;;10165648;28;85071;-46
2022/06/30 21:06:42;;;;;;;;;;;17.40;99.90;;;;;;10164627;28;85300;-48
2022/06/30 21:11:43;;;;;;;;;;;17.30;99.90;;;;;;10164158;28;84248;-49
2022/06/30 21:16:44;;;;;;;;;;;17.20;99.90;;;;;;10166183;28;84777;-48
2022/06/30 21:21:45;;;;;;;;;;;17.10;99.90;;;;;;10164785;28;85395;-48
2022/06/30 21:26:46;;;;;;;;;;;17.00;99.90;;;;;;10162910;28;84249;-45
2022/06/30 21:31:46;;;;;;;;;;;16.80;99.90;;;;;;10168962;28;84239;-45
2022/06/30 21:36:47;;;;;;;;;;;16.70;99.90;;;;;;10163919;28;84272;-45
2022/06/30 21:41:47;;;;;;;;;;;16.60;99.90;;;;;;10163144;28;84286;-47
2022/06/30 21:46:48;;;;;;;;;;;16.60;99.90;;;;;;10167872;28;84163;-50
2022/06/30 21:51:49;;;;;;;;;;;16.60;99.90;;;;;;10163084;28;84127;-46
2022/06/30 21:56:49;;;;;;;;;;;16.60;99.90;;;;;;10165670;28;84833;-46
2022/06/30 22:01:50;;;;;;;;;;;16.60;99.90;;;;;;10170366;28;84176;-45
2022/06/30 22:06:51;;;;;;;;;;;16.60;99.90;;;;;;10170833;28;85281;-45
2022/06/30 22:11:51;;;;;;;;;;;16.60;99.90;;;;;;10169340;28;84694;-50
2022/06/30 22:16:52;;;;;;;;;;;16.50;99.90;;;;;;10169196;28;84106;-45
2022/06/30 22:21:52;;;;;;;;;;;16.50;99.90;;;;;;10168843;28;84903;-47
2022/06/30 22:26:53;;;;;;;;;;;16.50;99.90;;;;;;10169127;28;84329;-47
2022/06/30 22:31:53;;;;;;;;;;;16.30;99.90;;;;;;10168890;28;84233;-48
2022/06/30 22:36:55;;;;;;;;;;;16.20;99.90;;;;;;10168679;28;88492;-46
2022/06/30 22:41:59;;;;;;;;;;;16.20;99.90;;;;;;10168232;28;84886;-45
2022/06/30 22:46:59;;;;;;;;;;;16.20;99.90;;;;;;10167610;28;84550;-48
2022/06/30 22:52:00;;;;;;;;;;;16.20;99.90;;;;;;10166422;28;85140;-45
2022/06/30 22:57:02;;;;;;;;;;;16.30;99.90;;;;;;10167863;28;84044;-46
2022/06/30 23:02:03;;;;;;;;;;;16.40;99.90;;;;;;10167702;28;84737;-45
2022/06/30 23:07:04;;;;;;;;;;;16.50;99.90;;;;;;10166719;28;84564;-45
2022/06/30 23:12:05;;;;;;;;;;;16.50;99.90;;;;;;10167821;28;84962;-44
2022/06/30 23:17:05;;;;;;;;;;;16.30;99.90;;;;;;10168634;28;84866;-45
2022/06/30 23:22:06;;;;;;;;;;;16.30;99.90;;;;;;10167102;28;85040;-46
2022/06/30 23:27:06;;;;;;;;;;;16.10;99.90;;;;;;10166748;28;84415;-48
2022/06/30 23:32:07;;;;;;;;;;;16.10;99.90;;;;;;10166643;28;84353;-45
2022/06/30 23:37:07;;;;;;;;;;;16.10;99.90;;;;;;10167076;28;84044;-44
2022/06/30 23:42:08;;;;;;;;;;;16.10;99.90;;;;;;10166427;28;85271;-45
2022/06/30 23:47:09;;;;;;;;;;;16.00;99.90;;;;;;10167211;28;84890;-44
2022/06/30 23:52:09;;;;;;;;;;;15.90;99.90;;;;;;10166392;28;84825;-45
2022/06/30 23:57:10;;;;;;;;;;;16.00;99.90;;;;;;10166669;28;87200;-46
